Time;durP1;ratioP1;P1;durP2;ratioP2;P2;SDS_P1;SDS_P2;PMS_P1;PMS_P2;Temp;Humidity;BMP_temperature;BMP_pressure;BME280_temperature;BME280_humidity;BME280_pressure;Samples;Min_cycle;Max_cycle;Signal;HPM_P1;HPM_P2
2021/04/26 00:01:47;;;;;;;10.70;2.30;;;;;;;;;;5054833;28;20031;-78
2021/04/26 00:04:12;;;;;;;7.60;2.73;;;;;;;;;;5055859;28;20057;-79
2021/04/26 00:06:38;;;;;;;7.83;1.80;;;;;;;;;;5054777;28;20024;-78
2021/04/26 00:09:03;;;;;;;9.90;2.33;;;;;;;;;;5056010;28;20021;-79
2021/04/26 00:11:29;;;;;;;6.73;2.50;;;;;;;;;;5055695;28;20017;-78
2021/04/26 00:13:54;;;;;;;13.67;2.23;;;;;;;;;;5055886;28;20028;-78
2021/04/26 00:16:19;;;;;;;14.13;2.10;;;;;;;;;;5054315;28;20104;-78
2021/04/26 00:18:44;;;;;;;7.47;2.13;;;;;;;;;;5055975;28;20086;-78
2021/04/26 00:21:09;;;;;;;11.73;2.60;;;;;;;;;;5054230;28;20111;-79
2021/04/26 00:23:35;;;;;;;8.87;2.30;;;;;;;;;;5054405;28;20017;-78
2021/04/26 00:26:00;;;;;;;8.83;2.00;;;;;;;;;;5055585;28;20067;-79
2021/04/26 00:28:25;;;;;;;9.70;2.87;;;;;;;;;;5055417;28;20021;-79
2021/04/26 00:30:50;;;;;;;10.00;2.10;;;;;;;;;;5055430;28;20542;-79
2021/04/26 00:33:15;;;;;;;11.13;1.87;;;;;;;;;;5055242;28;20013;-79
2021/04/26 00:35:41;;;;;;;11.27;2.10;;;;;;;;;;5054191;28;20019;-78
2021/04/26 00:38:06;;;;;;;10.97;2.67;;;;;;;;;;5054074;28;20024;-79
2021/04/26 00:40:31;;;;;;;14.07;2.20;;;;;;;;;;5055541;28;20481;-79
2021/04/26 00:42:56;;;;;;;11.23;1.80;;;;;;;;;;5055371;28;20023;-79
2021/04/26 00:45:23;;;;;;;9.87;2.17;;;;;;;;;;5055693;28;20072;-79
2021/04/26 00:47:49;;;;;;;11.53;2.43;;;;;;;;;;5055260;28;20025;-79
2021/04/26 00:50:34;;;;;;;9.17;2.30;;;;;;;;;;5054147;28;20029;-79
2021/04/26 00:53:01;;;;;;;9.93;2.08;;;;;;;;;;5053562;28;20041;-79
2021/04/26 00:55:27;;;;;;;10.07;2.20;;;;;;;;;;5053778;28;20021;-79
2021/04/26 00:57:53;;;;;;;10.57;2.70;;;;;;;;;;5053626;28;20118;-79
2021/04/26 01:00:18;;;;;;;13.23;2.08;;;;;;;;;;5054969;28;20504;-79
2021/04/26 01:02:43;;;;;;;14.35;2.10;;;;;;;;;;5054802;28;20380;-79
2021/04/26 01:05:10;;;;;;;6.45;2.03;;;;;;;;;;5054867;28;20021;-79
2021/04/26 01:07:37;;;;;;;9.85;2.22;;;;;;;;;;5053418;28;20391;-79
2021/04/26 01:10:03;;;;;;;10.93;2.05;;;;;;;;;;5053455;28;20032;-79
2021/04/26 01:12:37;;;;;;;10.52;2.53;;;;;;;;;;5070252;28;20532;-79
2021/04/26 01:15:11;;;;;;;9.75;2.30;;;;;;;;;;5070128;28;20020;-79
2021/04/26 01:17:38;;;;;;;11.75;1.95;;;;;;;;;;5070069;28;20119;-79
2021/04/26 01:20:22;;;;;;;6.73;2.03;;;;;;;;;;5054431;28;20435;-79
2021/04/26 01:23:04;;;;;;;6.50;2.33;;;;;;;;;;5054278;28;20017;-79
2021/04/26 01:25:31;;;;;;;9.05;2.08;;;;;;;;;;5053286;28;20025;-79
2021/04/26 01:28:16;;;;;;;8.93;1.65;;;;;;;;;;5054248;28;20392;-79
2021/04/26 01:31:01;;;;;;;7.83;2.13;;;;;;;;;;5054292;28;20017;-79
2021/04/26 01:33:27;;;;;;;12.80;1.93;;;;;;;;;;5054137;28;20032;-79
2021/04/26 01:35:54;;;;;;;9.23;2.10;;;;;;;;;;5053084;28;20024;-79
2021/04/26 01:38:21;;;;;;;11.60;2.58;;;;;;;;;;5052684;28;20051;-79
2021/04/26 01:40:51;;;;;;;8.83;2.50;;;;;;;;;;5054226;28;20495;-79
2021/04/26 01:43:17;;;;;;;12.07;2.13;;;;;;;;;;5052758;28;20052;-79
2021/04/26 01:45:42;;;;;;;9.50;2.13;;;;;;;;;;5054198;28;20165;-79
2021/04/26 01:48:08;;;;;;;15.20;2.90;;;;;;;;;;5054104;28;20099;-79
2021/04/26 01:50:34;;;;;;;9.73;2.23;;;;;;;;;;5053844;28;20025;-79
2021/04/26 01:52:59;;;;;;;6.97;2.20;;;;;;;;;;5053820;28;20013;-78
2021/04/26 01:55:24;;;;;;;12.80;2.87;;;;;;;;;;5053941;28;20017;-78
2021/04/26 01:57:51;;;;;;;11.77;2.53;;;;;;;;;;5052551;28;20028;-79
2021/04/26 02:00:25;;;;;;;9.17;2.20;;;;;;;;;;5069158;28;20028;-78
2021/04/26 02:02:51;;;;;;;15.27;2.93;;;;;;;;;;5069026;28;20017;-79
2021/04/26 02:05:18;;;;;;;11.00;2.47;;;;;;;;;;5052484;28;20020;-79
2021/04/26 02:07:44;;;;;;;8.97;2.10;;;;;;;;;;5053801;28;20025;-79
2021/04/26 02:10:10;;;;;;;8.47;2.13;;;;;;;;;;5044649;28;20074;-78
2021/04/26 02:12:36;;;;;;;6.13;2.13;;;;;;;;;;5052272;28;20525;-78
2021/04/26 02:15:02;;;;;;;8.60;2.30;;;;;;;;;;5053528;28;20067;-78
2021/04/26 02:17:28;;;;;;;9.00;2.07;;;;;;;;;;5053403;28;20017;-78
2021/04/26 02:19:54;;;;;;;11.67;2.70;;;;;;;;;;5052079;28;20021;-78
2021/04/26 02:22:19;;;;;;;9.63;2.40;;;;;;;;;;5053827;28;20074;-78
2021/04/26 02:24:44;;;;;;;9.63;2.40;;;;;;;;;;5053307;28;20020;-79
2021/04/26 02:27:10;;;;;;;8.40;2.43;;;;;;;;;;5053302;28;20479;-79
2021/04/26 02:29:35;;;;;;;11.77;2.50;;;;;;;;;;5053371;28;20032;-78
2021/04/26 02:32:04;;;;;;;9.43;2.33;;;;;;;;;;5052020;28;20024;-79
2021/04/26 02:34:34;;;;;;;5.87;2.23;;;;;;;;;;5068773;28;20099;-78
2021/04/26 02:37:01;;;;;;;10.10;2.67;;;;;;;;;;5053354;28;20017;-78
2021/04/26 02:39:28;;;;;;;15.00;3.50;;;;;;;;;;5052077;28;20021;-79
2021/04/26 02:41:53;;;;;;;9.90;2.40;;;;;;;;;;5052998;28;20021;-78
2021/04/26 02:44:21;;;;;;;11.97;2.30;;;;;;;;;;5051858;28;20027;-78
2021/04/26 02:46:48;;;;;;;9.00;2.40;;;;;;;;;;5053319;28;20031;-79
2021/04/26 02:49:13;;;;;;;9.40;2.20;;;;;;;;;;5052777;28;20049;-78
2021/04/26 02:51:38;;;;;;;17.50;2.63;;;;;;;;;;5068570;28;20077;-78
2021/04/26 02:54:05;;;;;;;4.63;2.20;;;;;;;;;;5053028;28;20013;-78
2021/04/26 02:56:33;;;;;;;7.57;2.60;;;;;;;;;;5053266;28;20019;-78
2021/04/26 02:58:59;;;;;;;8.60;2.67;;;;;;;;;;5052996;28;20017;-78
2021/04/26 03:01:24;;;;;;;13.90;2.60;;;;;;;;;;5052938;28;20510;-78
2021/04/26 03:03:50;;;;;;;11.97;2.47;;;;;;;;;;5052423;28;20046;-78
2021/04/26 03:06:16;;;;;;;11.70;2.60;;;;;;;;;;5051817;28;20487;-79
2021/04/26 03:08:42;;;;;;;11.57;2.57;;;;;;;;;;5053078;28;20053;-79
2021/04/26 03:11:07;;;;;;;8.30;2.33;;;;;;;;;;5051612;28;20052;-78
2021/04/26 03:13:34;;;;;;;14.20;2.57;;;;;;;;;;5052036;28;20032;-79
2021/04/26 03:15:59;;;;;;;10.73;2.50;;;;;;;;;;5056775;28;20387;-78
2021/04/26 03:18:24;;;;;;;11.33;2.67;;;;;;;;;;5056737;28;20013;-78
2021/04/26 03:20:50;;;;;;;13.30;2.40;;;;;;;;;;5042331;28;20028;-78
2021/04/26 03:23:16;;;;;;;9.07;2.80;;;;;;;;;;5043330;28;20027;-78
2021/04/26 03:25:42;;;;;;;11.63;2.73;;;;;;;;;;5055546;28;20052;-78
2021/04/26 03:28:07;;;;;;;6.30;2.20;;;;;;;;;;5071939;28;20094;-79
2021/04/26 03:30:33;;;;;;;6.43;2.50;;;;;;;;;;5056546;28;20408;-78
2021/04/26 03:32:58;;;;;;;13.97;2.60;;;;;;;;;;5055527;28;20415;-78
2021/04/26 03:35:24;;;;;;;9.67;2.13;;;;;;;;;;5056673;28;20024;-78
2021/04/26 03:37:50;;;;;;;12.33;2.87;;;;;;;;;;5056398;28;20384;-78
2021/04/26 03:40:19;;;;;;;15.30;2.93;;;;;;;;;;5056539;28;20025;-78
2021/04/26 03:42:45;;;;;;;12.63;2.70;;;;;;;;;;5056452;28;20074;-78
2021/04/26 03:45:12;;;;;;;12.80;2.80;;;;;;;;;;5055082;28;20419;-78
2021/04/26 03:47:38;;;;;;;11.33;2.83;;;;;;;;;;5056280;28;20029;-79
2021/04/26 03:50:03;;;;;;;17.10;2.77;;;;;;;;;;5054943;28;20487;-78
2021/04/26 03:52:28;;;;;;;8.13;2.50;;;;;;;;;;5054966;28;20017;-79
2021/04/26 03:54:53;;;;;;;11.60;3.07;;;;;;;;;;5056045;28;20024;-78
2021/04/26 03:57:19;;;;;;;9.03;2.67;;;;;;;;;;5054980;28;20106;-78
2021/04/26 03:59:44;;;;;;;7.37;2.53;;;;;;;;;;5056162;28;20027;-78
2021/04/26 04:02:09;;;;;;;10.23;3.20;;;;;;;;;;5055940;28;20063;-78
2021/04/26 04:04:35;;;;;;;7.50;2.50;;;;;;;;;;5056337;28;20021;-78
2021/04/26 04:07:00;;;;;;;10.17;2.47;;;;;;;;;;5055853;28;20025;-78
2021/04/26 04:09:25;;;;;;;5.73;2.37;;;;;;;;;;5056016;28;20013;-78
2021/04/26 04:11:50;;;;;;;9.33;3.30;;;;;;;;;;5055739;28;20059;-78
2021/04/26 04:14:15;;;;;;;8.13;2.33;;;;;;;;;;5054518;28;20439;-78
2021/04/26 04:16:41;;;;;;;6.70;2.57;;;;;;;;;;5055897;28;20021;-78
2021/04/26 04:19:06;;;;;;;14.40;3.87;;;;;;;;;;5055458;28;20040;-78
2021/04/26 04:21:31;;;;;;;14.63;3.53;;;;;;;;;;5055990;28;20020;-78
2021/04/26 04:23:56;;;;;;;10.57;2.60;;;;;;;;;;5055685;28;20376;-78
2021/04/26 04:26:21;;;;;;;8.90;2.90;;;;;;;;;;5054282;28;20250;-78
2021/04/26 04:28:47;;;;;;;11.37;3.23;;;;;;;;;;5055593;28;20025;-78
2021/04/26 04:31:12;;;;;;;9.97;3.17;;;;;;;;;;5053501;28;20483;-78
2021/04/26 04:33:37;;;;;;;10.10;3.00;;;;;;;;;;5075443;28;20017;-78
2021/04/26 04:36:02;;;;;;;15.00;3.03;;;;;;;;;;5055743;28;20025;-78
2021/04/26 04:38:28;;;;;;;8.03;2.80;;;;;;;;;;5054331;28;20013;-78
2021/04/26 04:40:53;;;;;;;7.90;3.30;;;;;;;;;;5055577;28;20112;-78
2021/04/26 04:43:19;;;;;;;10.07;3.03;;;;;;;;;;5055112;28;20070;-78
2021/04/26 04:45:44;;;;;;;13.33;3.43;;;;;;;;;;5055318;28;20052;-78
2021/04/26 04:48:09;;;;;;;8.97;2.93;;;;;;;;;;5055062;28;20107;-78
2021/04/26 04:50:35;;;;;;;10.10;3.00;;;;;;;;;;5055001;28;20095;-78
2021/04/26 04:53:00;;;;;;;13.73;2.87;;;;;;;;;;5055230;28;20013;-78
2021/04/26 04:55:25;;;;;;;15.23;3.17;;;;;;;;;;5053637;28;20028;-78
2021/04/26 04:57:50;;;;;;;16.47;3.20;;;;;;;;;;5055058;28;20025;-78
2021/04/26 05:00:16;;;;;;;12.73;3.20;;;;;;;;;;5054845;28;20143;-78
2021/04/26 05:02:41;;;;;;;12.17;3.50;;;;;;;;;;5055424;28;20374;-78
2021/04/26 05:05:07;;;;;;;11.43;2.97;;;;;;;;;;5053505;28;20025;-78
2021/04/26 05:07:32;;;;;;;9.10;2.83;;;;;;;;;;5053632;28;20021;-78
2021/04/26 05:09:57;;;;;;;13.47;3.30;;;;;;;;;;5054772;28;20111;-78
2021/04/26 05:12:22;;;;;;;13.23;3.00;;;;;;;;;;5053415;28;20468;-79
2021/04/26 05:14:49;;;;;;;11.03;2.87;;;;;;;;;;5054648;28;20029;-78
2021/04/26 05:17:14;;;;;;;10.47;2.90;;;;;;;;;;5053283;28;20021;-78
2021/04/26 05:19:39;;;;;;;11.43;2.77;;;;;;;;;;5054713;28;20445;-78
2021/04/26 05:22:05;;;;;;;12.00;3.33;;;;;;;;;;5054648;28;20066;-78
2021/04/26 05:24:31;;;;;;;13.17;3.30;;;;;;;;;;5054388;28;20040;-78
2021/04/26 05:26:56;;;;;;;9.27;3.40;;;;;;;;;;5053276;28;20020;-78
2021/04/26 05:29:21;;;;;;;12.70;3.13;;;;;;;;;;5054350;28;20385;-79
2021/04/26 05:31:46;;;;;;;7.10;2.70;;;;;;;;;;5054210;28;20053;-78
2021/04/26 05:34:12;;;;;;;10.00;2.57;;;;;;;;;;5054394;28;20025;-78
2021/04/26 05:36:37;;;;;;;8.80;3.20;;;;;;;;;;5053837;28;20028;-79
2021/04/26 05:39:02;;;;;;;9.60;3.00;;;;;;;;;;5052998;28;20488;-79
2021/04/26 05:41:28;;;;;;;12.77;3.20;;;;;;;;;;5069302;28;20028;-78
2021/04/26 05:43:53;;;;;;;7.47;2.90;;;;;;;;;;5054129;28;20021;-79
2021/04/26 05:46:18;;;;;;;9.73;2.90;;;;;;;;;;5054094;28;20029;-79
2021/04/26 05:48:43;;;;;;;4.53;2.07;;;;;;;;;;5052822;28;20028;-79
2021/04/26 05:51:08;;;;;;;9.37;3.17;;;;;;;;;;5069448;28;20035;-78
2021/04/26 05:53:34;;;;;;;17.43;3.10;;;;;;;;;;5053800;28;20078;-79
2021/04/26 05:55:59;;;;;;;11.73;3.37;;;;;;;;;;5053954;28;20412;-79
2021/04/26 05:58:24;;;;;;;12.90;2.70;;;;;;;;;;5053772;28;20021;-79
2021/04/26 06:00:49;;;;;;;8.67;2.90;;;;;;;;;;5054116;28;20028;-79
2021/04/26 06:03:15;;;;;;;10.93;3.40;;;;;;;;;;5052567;28;20070;-79
2021/04/26 06:05:40;;;;;;;19.63;3.30;;;;;;;;;;5053578;28;20024;-79
2021/04/26 06:08:05;;;;;;;10.03;2.67;;;;;;;;;;5053776;28;20021;-79
2021/04/26 06:10:30;;;;;;;11.77;2.70;;;;;;;;;;5052255;28;20126;-79
2021/04/26 06:12:56;;;;;;;8.77;3.10;;;;;;;;;;5053535;28;20495;-79
2021/04/26 06:15:24;;;;;;;6.37;2.83;;;;;;;;;;5053623;28;20020;-79
2021/04/26 06:17:49;;;;;;;8.53;3.40;;;;;;;;;;5053504;28;20013;-79
2021/04/26 06:20:15;;;;;;;12.27;3.07;;;;;;;;;;5053624;28;20016;-79
2021/04/26 06:22:40;;;;;;;8.30;3.40;;;;;;;;;;5085734;28;20126;-79
2021/04/26 06:25:06;;;;;;;11.53;3.77;;;;;;;;;;5053800;28;20055;-78
2021/04/26 06:27:31;;;;;;;9.27;3.73;;;;;;;;;;5053426;28;20017;-79
2021/04/26 06:29:57;;;;;;;11.30;3.57;;;;;;;;;;5053227;28;20017;-79
2021/04/26 06:32:24;;;;;;;13.03;3.07;;;;;;;;;;5053462;28;20021;-78
2021/04/26 06:34:49;;;;;;;10.50;4.07;;;;;;;;;;5053240;28;20040;-79
2021/04/26 06:37:15;;;;;;;10.97;4.27;;;;;;;;;;5052099;28;20055;-79
2021/04/26 06:39:40;;;;;;;12.27;3.97;;;;;;;;;;5053168;28;20017;-79
2021/04/26 06:42:05;;;;;;;10.63;3.70;;;;;;;;;;5053902;28;20029;-79
2021/04/26 06:44:30;;;;;;;12.85;3.75;;;;;;;;;;5053428;28;20035;-79
2021/04/26 06:46:55;;;;;;;9.68;3.85;;;;;;;;;;5053084;28;20013;-79
2021/04/26 06:49:21;;;;;;;13.20;3.60;;;;;;;;;;5051271;28;20028;-79
2021/04/26 06:51:49;;;;;;;7.45;3.33;;;;;;;;;;5051724;28;20476;-79
2021/04/26 06:54:14;;;;;;;8.50;3.92;;;;;;;;;;5053153;28;20472;-79
2021/04/26 06:56:40;;;;;;;10.18;4.10;;;;;;;;;;5052960;28;20049;-79
2021/04/26 06:59:05;;;;;;;11.45;4.45;;;;;;;;;;5053130;28;20029;-79
2021/04/26 07:01:30;;;;;;;8.93;4.45;;;;;;;;;;5053100;28;20028;-79
2021/04/26 07:03:56;;;;;;;11.70;4.00;;;;;;;;;;5053000;28;20100;-79
2021/04/26 07:06:21;;;;;;;9.00;3.90;;;;;;;;;;5053055;28;20027;-79
2021/04/26 07:08:47;;;;;;;10.13;4.65;;;;;;;;;;5053115;28;20021;-79
2021/04/26 07:11:13;;;;;;;8.77;4.00;;;;;;;;;;5053152;28;20418;-79
2021/04/26 07:13:38;;;;;;;9.40;4.00;;;;;;;;;;5051478;28;20111;-79
2021/04/26 07:16:03;;;;;;;10.75;4.40;;;;;;;;;;5051770;28;20380;-79
2021/04/26 07:18:28;;;;;;;14.85;4.35;;;;;;;;;;5052734;28;20051;-79
2021/04/26 07:20:53;;;;;;;12.98;4.05;;;;;;;;;;5052844;28;20461;-79
2021/04/26 07:23:19;;;;;;;7.25;3.50;;;;;;;;;;5051670;28;20028;-79
2021/04/26 07:25:44;;;;;;;14.48;4.60;;;;;;;;;;5051742;28;20032;-79
2021/04/26 07:28:09;;;;;;;7.80;3.60;;;;;;;;;;5052757;28;20098;-79
2021/04/26 07:30:35;;;;;;;9.52;3.45;;;;;;;;;;5052884;28;20025;-79
2021/04/26 07:33:00;;;;;;;12.18;3.65;;;;;;;;;;5052691;28;20021;-79
2021/04/26 07:35:25;;;;;;;8.95;3.78;;;;;;;;;;5051572;28;20021;-79
2021/04/26 07:37:50;;;;;;;6.05;4.28;;;;;;;;;;5051289;28;20039;-79
2021/04/26 07:40:16;;;;;;;11.10;3.90;;;;;;;;;;5052756;28;20017;-79
2021/04/26 07:42:42;;;;;;;11.00;4.07;;;;;;;;;;5052757;28;20029;-79
2021/04/26 07:45:08;;;;;;;13.98;4.05;;;;;;;;;;5052673;28;20045;-79
2021/04/26 07:47:33;;;;;;;9.32;4.60;;;;;;;;;;5052507;28;20416;-79
2021/04/26 07:49:59;;;;;;;15.30;4.82;;;;;;;;;;5052602;28;20032;-79
2021/04/26 07:52:24;;;;;;;10.32;4.22;;;;;;;;;;5052582;28;20029;-79
2021/04/26 07:54:49;;;;;;;7.47;4.00;;;;;;;;;;5051223;28;20021;-79
2021/04/26 07:57:14;;;;;;;13.10;4.10;;;;;;;;;;5051331;28;20040;-79
2021/04/26 07:59:39;;;;;;;10.82;4.22;;;;;;;;;;5053141;28;20025;-79
2021/04/26 08:02:05;;;;;;;11.27;3.47;;;;;;;;;;5055902;28;20021;-79
2021/04/26 08:04:30;;;;;;;9.50;4.15;;;;;;;;;;5056094;28;20017;-79
2021/04/26 08:06:55;;;;;;;10.43;4.32;;;;;;;;;;5055866;28;20017;-79
2021/04/26 08:09:20;;;;;;;8.25;3.97;;;;;;;;;;5056174;28;20047;-79
2021/04/26 08:11:46;;;;;;;10.80;3.78;;;;;;;;;;5055978;28;20025;-79
2021/04/26 08:14:11;;;;;;;8.82;4.53;;;;;;;;;;5054423;28;20017;-79
2021/04/26 08:16:37;;;;;;;7.38;4.00;;;;;;;;;;5055914;28;20403;-79
2021/04/26 08:19:02;;;;;;;9.63;4.03;;;;;;;;;;5055708;28;20021;-79
2021/04/26 08:21:27;;;;;;;11.68;3.63;;;;;;;;;;5055674;28;20074;-79
2021/04/26 08:23:56;;;;;;;12.25;3.85;;;;;;;;;;5055772;28;20033;-79
2021/04/26 08:26:21;;;;;;;11.65;4.10;;;;;;;;;;5055511;28;20013;-79
2021/04/26 08:28:46;;;;;;;8.65;3.20;;;;;;;;;;5054396;28;20051;-79
2021/04/26 08:31:12;;;;;;;9.25;3.70;;;;;;;;;;5055633;28;20021;-79
2021/04/26 08:33:39;;;;;;;9.40;3.40;;;;;;;;;;5055544;28;20096;-79
2021/04/26 08:36:05;;;;;;;6.68;3.50;;;;;;;;;;5041476;28;20018;-79
2021/04/26 08:38:30;;;;;;;8.45;2.88;;;;;;;;;;5041565;28;20017;-79
2021/04/26 08:40:56;;;;;;;7.32;2.78;;;;;;;;;;5054155;28;20025;-79
2021/04/26 08:43:21;;;;;;;5.95;2.97;;;;;;;;;;5053927;28;20031;-79
2021/04/26 08:45:46;;;;;;;11.73;3.35;;;;;;;;;;5054075;28;20049;-79
2021/04/26 08:48:12;;;;;;;17.10;3.78;;;;;;;;;;5048098;28;20183;-78
2021/04/26 08:50:37;;;;;;;8.73;3.00;;;;;;;;;;5055192;28;20021;-78
2021/04/26 08:53:02;;;;;;;9.85;3.40;;;;;;;;;;5053917;28;20074;-79
2021/04/26 08:55:27;;;;;;;7.13;2.30;;;;;;;;;;5054960;28;20017;-79
2021/04/26 08:57:53;;;;;;;9.00;2.92;;;;;;;;;;5055549;28;20021;-79
2021/04/26 09:00:19;;;;;;;6.38;3.00;;;;;;;;;;5053720;28;20017;-79
2021/04/26 09:02:44;;;;;;;7.32;3.03;;;;;;;;;;5070442;28;20052;-79
2021/04/26 09:05:19;;;;;;;5.53;2.40;;;;;;;;;;5054804;28;20075;-79
2021/04/26 09:07:48;;;;;;;5.60;2.35;;;;;;;;;;5046466;28;20013;-79
2021/04/26 09:10:14;;;;;;;5.57;2.00;;;;;;;;;;5049919;28;20353;-79
2021/04/26 09:12:39;;;;;;;6.55;2.60;;;;;;;;;;5054010;28;20017;-79
2021/04/26 09:15:04;;;;;;;10.18;2.88;;;;;;;;;;5052366;28;20031;-79
2021/04/26 09:17:29;;;;;;;8.18;3.60;;;;;;;;;;5044533;28;20013;-79
2021/04/26 09:19:59;;;;;;;10.77;3.20;;;;;;;;;;5054698;28;20062;-79
2021/04/26 09:22:43;;;;;;;7.90;2.63;;;;;;;;;;5054656;28;20072;-79
2021/04/26 09:25:23;;;;;;;6.65;2.42;;;;;;;;;;5054988;28;20480;-79
2021/04/26 09:28:02;;;;;;;9.07;3.00;;;;;;;;;;5054466;28;20469;-79
2021/04/26 09:30:37;;;;;;;6.72;2.80;;;;;;;;;;5054338;28;20021;-79
2021/04/26 09:33:21;;;;;;;4.85;2.17;;;;;;;;;;5054340;28;20017;-79
2021/04/26 09:35:58;;;;;;;7.40;3.17;;;;;;;;;;5054524;28;20013;-79
2021/04/26 09:38:31;;;;;;;4.75;2.75;;;;;;;;;;5054100;28;20013;-79
2021/04/26 09:41:14;;;;;;;8.48;2.85;;;;;;;;;;5054375;28;20021;-79
2021/04/26 09:43:40;;;;;;;6.90;3.30;;;;;;;;;;5052954;28;20048;-79
2021/04/26 09:46:06;;;;;;;10.93;3.65;;;;;;;;;;5054095;28;20493;-79
2021/04/26 09:48:32;;;;;;;9.57;3.20;;;;;;;;;;5053950;28;20021;-79
2021/04/26 09:51:04;;;;;;;5.15;2.80;;;;;;;;;;5054146;28;20420;-79
2021/04/26 09:53:38;;;;;;;8.98;2.88;;;;;;;;;;5054374;28;20021;-79
2021/04/26 09:56:09;;;;;;;4.93;2.42;;;;;;;;;;5053966;28;20017;-79
2021/04/26 09:58:34;;;;;;;11.07;3.38;;;;;;;;;;5053760;28;20044;-79
2021/04/26 10:01:00;;;;;;;7.38;2.92;;;;;;;;;;5053921;28;20055;-79
2021/04/26 10:03:26;;;;;;;11.80;3.10;;;;;;;;;;5052492;28;20021;-79
2021/04/26 10:05:51;;;;;;;10.60;3.50;;;;;;;;;;5054016;28;20071;-79
2021/04/26 10:08:17;;;;;;;6.72;2.67;;;;;;;;;;5053808;28;20021;-79
2021/04/26 10:10:43;;;;;;;8.65;2.65;;;;;;;;;;5053508;28;20052;-79
2021/04/26 10:13:09;;;;;;;6.95;2.90;;;;;;;;;;5053582;28;20464;-79
2021/04/26 10:15:34;;;;;;;7.28;3.15;;;;;;;;;;5052252;28;20108;-79
2021/04/26 10:18:01;;;;;;;8.40;2.63;;;;;;;;;;5053613;28;20013;-79
2021/04/26 10:20:32;;;;;;;5.18;2.75;;;;;;;;;;5052384;28;20059;-79
2021/04/26 10:22:58;;;;;;;5.53;3.63;;;;;;;;;;5048255;28;20032;-79
2021/04/26 10:25:36;;;;;;;6.70;2.97;;;;;;;;;;5074166;28;20021;-79
2021/04/26 10:28:21;;;;;;;9.20;3.00;;;;;;;;;;5051147;28;20024;-79
2021/04/26 10:31:00;;;;;;;7.55;2.60;;;;;;;;;;5052076;28;20490;-79
2021/04/26 10:33:25;;;;;;;8.38;2.80;;;;;;;;;;5068796;28;20017;-79
2021/04/26 10:35:51;;;;;;;10.23;3.58;;;;;;;;;;5053400;28;20017;-79
2021/04/26 10:38:35;;;;;;;12.27;2.85;;;;;;;;;;5053239;28;20102;-79
2021/04/26 10:41:01;;;;;;;12.18;3.22;;;;;;;;;;5052083;28;20056;-79
2021/04/26 10:43:30;;;;;;;11.77;2.60;;;;;;;;;;5068573;28;20017;-79
2021/04/26 10:46:13;;;;;;;7.03;2.95;;;;;;;;;;5068622;28;20025;-79
2021/04/26 10:48:38;;;;;;;11.30;3.78;;;;;;;;;;5046917;28;20445;-79
2021/04/26 10:51:19;;;;;;;5.75;3.42;;;;;;;;;;5047895;28;20104;-79
2021/04/26 10:53:45;;;;;;;6.80;2.85;;;;;;;;;;5053068;28;20418;-79
2021/04/26 10:56:22;;;;;;;9.90;3.30;;;;;;;;;;5053200;28;20025;-79
2021/04/26 10:58:47;;;;;;;7.22;3.50;;;;;;;;;;5053056;28;20024;-79
2021/04/26 11:01:18;;;;;;;7.22;3.00;;;;;;;;;;5053092;28;20377;-79
2021/04/26 11:03:44;;;;;;;13.13;3.33;;;;;;;;;;5053101;28;20025;-79
2021/04/26 11:06:10;;;;;;;9.23;3.70;;;;;;;;;;5053220;28;20472;-79
2021/04/26 11:08:42;;;;;;;10.05;3.63;;;;;;;;;;5051271;28;20035;-79
2021/04/26 11:11:15;;;;;;;11.60;3.55;;;;;;;;;;5040274;28;20025;-79
2021/04/26 11:13:47;;;;;;;6.10;3.28;;;;;;;;;;5052744;28;20025;-79
2021/04/26 11:16:13;;;;;;;7.75;3.03;;;;;;;;;;5053080;28;20017;-79
2021/04/26 11:18:41;;;;;;;8.70;3.03;;;;;;;;;;5051563;28;20036;-79
2021/04/26 11:21:07;;;;;;;7.38;3.70;;;;;;;;;;5038846;28;20389;-79
2021/04/26 11:23:41;;;;;;;10.52;3.70;;;;;;;;;;5052942;28;20481;-79
2021/04/26 11:26:12;;;;;;;11.18;3.50;;;;;;;;;;5053064;28;20460;-79
2021/04/26 11:28:56;;;;;;;10.57;3.33;;;;;;;;;;5052938;28;20091;-79
2021/04/26 11:31:42;;;;;;;4.57;2.03;;;;;;;;;;5052563;28;20013;-79
2021/04/26 11:34:11;;;;;;;7.63;3.13;;;;;;;;;;5052763;28;20109;-79
2021/04/26 11:36:38;;;;;;;5.70;3.00;;;;;;;;;;5056371;28;20017;-79
2021/04/26 11:39:07;;;;;;;9.40;3.55;;;;;;;;;;5056741;28;20027;-79
2021/04/26 11:41:39;;;;;;;8.77;3.35;;;;;;;;;;5054722;28;20135;-79
2021/04/26 11:44:05;;;;;;;6.82;2.60;;;;;;;;;;5056155;28;20024;-79
2021/04/26 11:46:30;;;;;;;8.73;3.55;;;;;;;;;;5055815;28;20021;-79
2021/04/26 11:49:31;;;;;;;7.40;3.30;;;;;;;;;;5055879;28;20017;-79
2021/04/26 11:51:57;;;;;;;8.45;2.90;;;;;;;;;;5073508;28;20063;-79
2021/04/26 11:54:26;;;;;;;11.43;3.63;;;;;;;;;;5053969;28;20039;-79
2021/04/26 11:57:02;;;;;;;9.20;3.40;;;;;;;;;;5054247;28;20017;-79
2021/04/26 11:59:28;;;;;;;12.75;3.90;;;;;;;;;;5055804;28;20016;-79
2021/04/26 12:01:53;;;;;;;4.35;2.70;;;;;;;;;;5055357;28;20107;-79
2021/04/26 12:04:38;;;;;;;7.70;3.00;;;;;;;;;;5055667;28;20017;-79
2021/04/26 12:07:04;;;;;;;7.28;3.45;;;;;;;;;;5054119;28;20056;-79
2021/04/26 12:09:30;;;;;;;11.40;4.13;;;;;;;;;;5055231;28;20016;-79
2021/04/26 12:11:59;;;;;;;5.43;2.65;;;;;;;;;;5055482;28;20021;-79
2021/04/26 12:14:24;;;;;;;9.48;3.80;;;;;;;;;;5055292;28;20021;-79
2021/04/26 12:16:49;;;;;;;7.80;3.47;;;;;;;;;;5055315;28;20021;-79
2021/04/26 12:19:15;;;;;;;11.57;3.47;;;;;;;;;;5054895;28;20017;-79
2021/04/26 12:21:40;;;;;;;7.72;3.58;;;;;;;;;;5055364;28;20017;-79
2021/04/26 12:24:05;;;;;;;7.50;2.58;;;;;;;;;;5055149;28;20013;-79
2021/04/26 12:26:31;;;;;;;12.13;3.47;;;;;;;;;;5054987;28;20021;-79
2021/04/26 12:28:56;;;;;;;12.48;4.22;;;;;;;;;;5053779;28;20025;-79
2021/04/26 12:31:23;;;;;;;7.75;3.60;;;;;;;;;;5054814;28;20025;-79
2021/04/26 12:33:49;;;;;;;8.70;3.80;;;;;;;;;;5054983;28;20017;-79
2021/04/26 12:36:14;;;;;;;6.78;2.78;;;;;;;;;;5054860;28;20021;-79
2021/04/26 12:38:46;;;;;;;7.80;2.88;;;;;;;;;;5054957;28;20023;-79
2021/04/26 12:41:12;;;;;;;12.40;3.38;;;;;;;;;;5054803;28;20021;-79
2021/04/26 12:43:38;;;;;;;10.25;2.90;;;;;;;;;;5054769;28;20349;-79
2021/04/26 12:46:05;;;;;;;8.43;3.17;;;;;;;;;;5054046;28;20436;-79
2021/04/26 12:48:31;;;;;;;7.72;3.88;;;;;;;;;;5054255;28;20017;-79
2021/04/26 12:50:56;;;;;;;11.95;3.65;;;;;;;;;;5054588;28;20131;-79
2021/04/26 12:53:21;;;;;;;13.15;3.53;;;;;;;;;;5053153;28;20114;-79
2021/04/26 12:55:51;;;;;;;7.20;2.58;;;;;;;;;;5054524;28;20013;-79
2021/04/26 12:58:24;;;;;;;6.00;3.08;;;;;;;;;;5054304;28;20479;-79
2021/04/26 13:00:52;;;;;;;5.10;2.33;;;;;;;;;;5054632;28;20167;-79
2021/04/26 13:03:28;;;;;;;10.70;3.22;;;;;;;;;;5054423;28;20052;-79
2021/04/26 13:06:00;;;;;;;9.25;3.42;;;;;;;;;;5057519;28;20032;-79
2021/04/26 13:08:27;;;;;;;7.70;3.13;;;;;;;;;;5054071;28;20025;-79
2021/04/26 13:10:53;;;;;;;7.07;2.65;;;;;;;;;;5054265;28;20056;-79
2021/04/26 13:13:19;;;;;;;18.70;3.78;;;;;;;;;;5054097;28;20029;-79
2021/04/26 13:15:44;;;;;;;6.28;2.60;;;;;;;;;;5054052;28;20074;-79
2021/04/26 13:18:10;;;;;;;6.07;2.88;;;;;;;;;;5054191;28;20014;-79
2021/04/26 13:20:35;;;;;;;6.82;3.25;;;;;;;;;;5054055;28;20076;-79
2021/04/26 13:23:20;;;;;;;5.30;2.33;;;;;;;;;;5053779;28;20468;-79
2021/04/26 13:25:45;;;;;;;8.45;3.08;;;;;;;;;;5052440;28;20033;-79
2021/04/26 13:28:27;;;;;;;6.68;3.20;;;;;;;;;;5047540;28;20021;-79
2021/04/26 13:30:52;;;;;;;10.13;2.83;;;;;;;;;;5047002;28;20072;-79
2021/04/26 13:33:18;;;;;;;10.02;2.72;;;;;;;;;;5053640;28;20049;-79
2021/04/26 13:35:43;;;;;;;10.43;2.55;;;;;;;;;;5053702;28;20025;-79
2021/04/26 13:38:08;;;;;;;6.22;2.72;;;;;;;;;;5053472;28;20020;-79
2021/04/26 13:40:33;;;;;;;11.50;3.33;;;;;;;;;;5053497;28;20424;-79
2021/04/26 13:42:58;;;;;;;13.60;3.00;;;;;;;;;;5052083;28;20021;-79
2021/04/26 13:45:24;;;;;;;8.27;2.97;;;;;;;;;;5053505;28;20013;-79
2021/04/26 13:47:49;;;;;;;7.00;3.30;;;;;;;;;;5053199;28;20021;-79
2021/04/26 13:50:14;;;;;;;10.95;3.00;;;;;;;;;;5053253;28;20017;-79
2021/04/26 13:52:39;;;;;;;9.07;3.50;;;;;;;;;;5052178;28;20019;-79
2021/04/26 13:55:05;;;;;;;10.80;3.15;;;;;;;;;;5053156;28;20020;-79
2021/04/26 13:57:30;;;;;;;7.00;2.88;;;;;;;;;;5053358;28;20464;-79
2021/04/26 13:59:55;;;;;;;6.38;2.75;;;;;;;;;;5039155;28;20024;-79
2021/04/26 14:02:20;;;;;;;6.30;2.90;;;;;;;;;;5053355;28;20016;-79
2021/04/26 14:04:46;;;;;;;7.68;3.35;;;;;;;;;;5053284;28;20024;-79
2021/04/26 14:07:11;;;;;;;7.85;3.60;;;;;;;;;;5053006;28;20020;-79
2021/04/26 14:09:36;;;;;;;9.32;3.33;;;;;;;;;;5052988;28;20457;-79
2021/04/26 14:12:01;;;;;;;10.07;3.45;;;;;;;;;;5052838;28;20469;-79
2021/04/26 14:14:27;;;;;;;8.90;3.28;;;;;;;;;;5052922;28;20078;-79
2021/04/26 14:16:52;;;;;;;11.50;3.28;;;;;;;;;;5052977;28;20076;-79
2021/04/26 14:19:17;;;;;;;8.57;3.50;;;;;;;;;;5051316;28;20020;-79
2021/04/26 14:21:42;;;;;;;9.07;4.45;;;;;;;;;;5052880;28;20487;-79
2021/04/26 14:24:08;;;;;;;5.13;3.28;;;;;;;;;;5052684;28;20021;-79
2021/04/26 14:26:33;;;;;;;6.00;3.00;;;;;;;;;;5052560;28;20025;-79
2021/04/26 14:28:58;;;;;;;6.97;2.80;;;;;;;;;;5052900;28;20115;-79
2021/04/26 14:31:23;;;;;;;7.20;3.40;;;;;;;;;;5052459;28;20017;-79
2021/04/26 14:33:49;;;;;;;8.02;3.15;;;;;;;;;;5043418;28;20018;-80
2021/04/26 14:36:14;;;;;;;7.25;2.90;;;;;;;;;;5047889;28;20052;-79
2021/04/26 14:38:40;;;;;;;5.00;3.03;;;;;;;;;;5052556;28;20013;-79